Portada
METAR-TAF:

METAR-TAF

Aeropuertos :

Yap, Yap Island, Micronesia

Aeropuerto Internacional de Yap

latitud: 09-29N, longitud: 138-05E, altitud: 28 m

Observación

El informe se hizo hace 4 horas y 49 minutos, a las 15:50 UTC
Viento 4 kt con dirección variable
Temperatura 26°C
Humedad 94%
Presión 1010 hPa
Visibilidad: 19.3 km
Escasas nubes a una altura de 1600 ft
Nubes dispersas a una altura de 13000 ft
Cielo nuboso a una altura de 30000 ft

METAR: PTYA 271550Z VRB04KT 12SM FEW016 SCT130 BKN300 26/25 A2983 RMK SLP101 T02610250

Hora: 06:39 (20:39 UTC)

Pronóstico

El informe se hizo hace 3 horas y 12 minutos, a las 17:27 UTC
Pronóstico válido del 27 a las 18 UTC al 28 a las 18 UTC
Viento 5 kt del sureste
Visibilidad: 10 km
Nubes dispersas a una altura de 1600 ft
Cielo nuboso a una altura de 13000 ft
chaparrones en las proximidades

TAF: PTYA 271727Z 2718/2818 13005KT P6SM VCSH SCT016 BKN130

Observaciones y pronósticos meteorológicos de más de 4000 aeropuertos (mensajes METAR y TAF).

Los puntos amarillos y rojos representan las estaciones disponibles.

Ponga el ratón en el punto deseado para ver el nombre de la estación.

Haga clic para ver las observaciones y los pronósticos meteorológicos.

Para cambiar el mapa : haga clic en los botones verdes con una cruz de color negro para hacer un zoom, en el botón verde con un guión para alejar o en las flechas verdes para mapas adyacentes.


METAR-TAF: